Time;durP1;ratioP1;P1;durP2;ratioP2;P2;SDS_P1;SDS_P2;PMS_P1;PMS_P2;Temp;Humidity;BMP_temperature;BMP_pressure;BME280_temperature;BME280_humidity;BME280_pressure;Samples;Min_cycle;Max_cycle;Signal;HPM_P1;HPM_P2
2022/04/12 00:01:00;;;;;;;0.00;0.00;;;11.90;66.90;;;;;;4138025;28;20585;-72
2022/04/12 00:03:25;;;;;;;0.00;0.00;;;11.80;66.70;;;;;;4151771;28;20107;-67
2022/04/12 00:05:47;;;;;;;0.00;0.00;;;11.80;66.60;;;;;;4151958;28;20360;-69
2022/04/12 00:08:12;;;;;;;0.00;0.00;;;11.90;66.40;;;;;;4166134;28;20045;-68
2022/04/12 00:10:35;;;;;;;0.00;0.00;;;11.90;66.20;;;;;;4166071;28;20732;-68
2022/04/12 00:13:02;;;;;;;0.00;0.00;;;12.00;66.40;;;;;;4151142;28;20120;-68
2022/04/12 00:15:25;;;;;;;0.00;0.00;;;12.00;66.60;;;;;;4137967;28;20586;-66
2022/04/12 00:20:28;;;;;;;0.00;0.00;;;12.00;66.90;;;;;;4165891;28;20037;-68
2022/04/12 00:22:58;;;;;;;0.00;0.00;;;11.90;67.20;;;;;;4164723;28;20367;-69
2022/04/12 00:25:22;;;;;;;0.00;0.00;;;11.90;67.50;;;;;;4165132;28;20136;-68
2022/04/12 00:27:51;;;;;;;0.00;0.00;;;11.80;68.30;;;;;;4138236;28;20042;-67
2022/04/12 00:30:14;;;;;;;0.00;0.00;;;11.60;69.80;;;;;;4164877;28;20053;-67
2022/04/12 00:32:42;;;;;;;0.00;0.00;;;11.40;70.70;;;;;;4165728;28;20045;-69
2022/04/12 00:35:08;;;;;;;0.00;0.00;;;11.40;71.90;;;;;;4165287;28;20726;-71
2022/04/12 00:37:31;;;;;;;0.00;0.00;;;11.40;72.40;;;;;;4137487;28;20050;-70
2022/04/12 00:40:04;;;;;;;0.00;0.00;;;11.30;72.90;;;;;;4164783;28;20387;-68
2022/04/12 00:42:40;;;;;;;0.00;0.00;;;11.20;73.50;;;;;;4164322;28;20115;-67
2022/04/12 00:45:07;;;;;;;0.00;0.00;;;11.20;74.10;;;;;;4151636;28;20463;-68
2022/04/12 00:47:47;;;;;;;0.00;0.00;;;11.20;74.30;;;;;;4164684;28;20096;-68
2022/04/12 00:50:23;;;;;;;0.00;0.00;;;11.30;74.60;;;;;;4153038;28;20120;-71
2022/04/12 00:52:56;;;;;;;0.00;0.00;;;11.20;74.50;;;;;;4165096;28;20115;-70
2022/04/12 00:55:23;;;;;;;0.00;0.00;;;11.30;74.20;;;;;;4165261;28;20128;-70
2022/04/12 00:57:58;;;;;;;0.00;0.00;;;11.30;74.30;;;;;;4164540;28;20037;-72
2022/04/12 01:00:35;;;;;;;0.00;0.00;;;11.40;73.10;;;;;;4181562;28;20387;-68
2022/04/12 01:02:59;;;;;;;0.00;0.00;;;11.40;72.80;;;;;;4166901;28;20049;-68
2022/04/12 01:05:34;;;;;;;0.00;0.00;;;11.30;72.70;;;;;;4181717;28;20171;-69
2022/04/12 01:08:01;;;;;;;0.00;0.00;;;11.20;73.20;;;;;;4181567;28;20041;-70
2022/04/12 01:10:25;;;;;;;0.00;0.00;;;11.10;73.80;;;;;;4166838;28;20041;-71
2022/04/12 01:12:50;;;;;;;0.00;0.00;;;11.10;74.20;;;;;;4166603;28;20054;-68
2022/04/12 01:15:16;;;;;;;0.00;0.00;;;11.00;74.50;;;;;;4167049;28;20065;-69
2022/04/12 01:17:38;;;;;;;0.00;0.00;;;11.10;74.50;;;;;;4166805;28;20518;-70
2022/04/12 01:20:06;;;;;;;0.00;0.00;;;11.10;74.80;;;;;;4153054;28;20109;-69
2022/04/12 01:22:30;;;;;;;0.00;0.00;;;11.00;75.20;;;;;;4153361;28;20071;-68
2022/04/12 01:24:52;;;;;;;0.00;0.00;;;11.00;75.50;;;;;;4166480;28;20042;-65
2022/04/12 01:27:15;;;;;;;0.00;0.00;;;10.90;75.70;;;;;;4167104;28;20049;-67
2022/04/12 01:29:42;;;;;;;0.00;0.00;;;11.00;75.70;;;;;;4139855;28;20124;-67
2022/04/12 01:32:08;;;;;;;0.00;0.00;;;11.00;75.70;;;;;;4166654;28;20041;-67
2022/04/12 01:34:30;;;;;;;0.00;0.00;;;11.00;75.70;;;;;;4166771;28;20427;-68
2022/04/12 01:36:56;;;;;;;0.00;0.00;;;11.00;75.70;;;;;;4152429;28;20088;-72
2022/04/12 01:39:18;;;;;;;0.00;0.00;;;11.00;75.70;;;;;;4166268;28;20045;-73
2022/04/12 01:41:40;;;;;;;0.00;0.00;;;11.00;75.60;;;;;;4153064;28;20107;-69
2022/04/12 01:44:05;;;;;;;0.00;0.00;;;11.00;75.50;;;;;;4166524;28;20475;-70
2022/04/12 01:46:27;;;;;;;0.00;0.00;;;11.00;75.30;;;;;;4153028;28;20087;-67
2022/04/12 01:48:49;;;;;;;0.00;0.00;;;11.00;75.10;;;;;;4152464;28;20038;-73
2022/04/12 01:51:11;;;;;;;0.00;0.00;;;11.00;75.00;;;;;;4153179;28;20093;-67
2022/04/12 01:53:41;;;;;;;0.00;0.00;;;10.80;74.80;;;;;;4152802;28;20064;-67
2022/04/12 01:56:03;;;;;;;0.00;0.00;;;10.80;74.60;;;;;;4166712;28;20045;-71
2022/04/12 01:58:25;;;;;;;0.00;0.00;;;10.80;74.50;;;;;;4152695;28;20077;-68
2022/04/12 02:00:47;;;;;;;0.00;0.00;;;10.70;75.00;;;;;;4166185;28;20103;-68
2022/04/12 02:03:13;;;;;;;0.00;0.00;;;10.70;75.60;;;;;;4153222;28;20061;-68
2022/04/12 02:05:39;;;;;;;0.00;0.00;;;10.80;76.00;;;;;;4153363;28;20392;-70
2022/04/12 02:08:02;;;;;;;0.00;0.00;;;10.80;76.40;;;;;;4166437;28;20049;-67
2022/04/12 02:10:26;;;;;;;0.00;0.00;;;10.70;76.60;;;;;;4166385;28;20427;-67
2022/04/12 02:12:49;;;;;;;0.00;0.00;;;10.70;76.80;;;;;;4165845;28;20041;-69
2022/04/12 02:15:11;;;;;;;0.00;0.00;;;10.70;77.30;;;;;;4166265;28;20125;-71
2022/04/12 02:17:36;;;;;;;0.00;0.00;;;10.60;77.60;;;;;;4166494;28;20042;-69
2022/04/12 02:19:58;;;;;;;0.00;0.00;;;10.50;77.60;;;;;;4166345;28;20049;-71
2022/04/12 02:22:20;;;;;;;0.00;0.00;;;10.30;77.60;;;;;;4165755;28;20515;-70
2022/04/12 02:24:42;;;;;;;0.00;0.00;;;10.20;77.80;;;;;;4166004;28;20700;-69
2022/04/12 02:27:04;;;;;;;0.00;0.00;;;10.10;78.00;;;;;;4152651;28;20042;-71
2022/04/12 02:29:29;;;;;;;0.00;0.00;;;10.20;77.70;;;;;;4153183;28;20077;-67
2022/04/12 02:31:51;;;;;;;0.00;0.00;;;10.20;77.10;;;;;;4166181;28;20369;-70
2022/04/12 02:34:13;;;;;;;0.00;0.00;;;10.20;76.60;;;;;;4166060;28;20042;-69
2022/04/12 02:36:35;;;;;;;0.00;0.00;;;10.30;76.30;;;;;;4152759;28;20053;-70
2022/04/12 02:39:00;;;;;;;0.00;0.00;;;10.30;75.80;;;;;;4138887;28;20450;-69
2022/04/12 02:41:22;;;;;;;0.00;0.00;;;10.40;75.40;;;;;;4168734;28;20447;-70
2022/04/12 02:43:48;;;;;;;0.00;0.00;;;10.40;75.30;;;;;;4155979;28;20665;-68
2022/04/12 02:46:10;;;;;;;0.00;0.00;;;10.40;75.10;;;;;;4169122;28;20107;-68
2022/04/12 02:48:32;;;;;;;0.00;0.00;;;10.40;75.00;;;;;;4155411;28;20041;-71
2022/04/12 02:50:54;;;;;;;0.00;0.00;;;10.40;75.00;;;;;;4155023;28;20401;-68
2022/04/12 02:53:21;;;;;;;0.00;0.00;;;10.30;75.00;;;;;;4169235;28;20069;-67
2022/04/12 02:55:50;;;;;;;0.00;0.00;;;10.30;75.10;;;;;;4170036;28;20375;-70
2022/04/12 02:58:12;;;;;;;0.00;0.00;;;10.20;75.30;;;;;;4155087;28;20490;-69
2022/04/12 03:00:34;;;;;;;0.00;0.00;;;10.10;76.00;;;;;;4168844;28;20519;-67
2022/04/12 03:03:01;;;;;;;0.00;0.00;;;10.10;77.00;;;;;;4154617;28;20073;-67
2022/04/12 03:05:23;;;;;;;0.00;0.00;;;10.00;77.90;;;;;;4155429;28;20081;-69
2022/04/12 03:07:47;;;;;;;0.00;0.00;;;10.00;78.70;;;;;;4155139;28;20042;-70
2022/04/12 03:10:12;;;;;;;0.00;0.00;;;9.90;79.60;;;;;;4155074;28;20054;-67
2022/04/12 03:12:36;;;;;;;0.00;0.00;;;10.00;79.80;;;;;;4155017;28;20045;-66
2022/04/12 03:15:02;;;;;;;0.00;0.00;;;10.10;79.60;;;;;;4154583;28;20056;-64
2022/04/12 03:17:24;;;;;;;0.00;0.00;;;10.20;79.20;;;;;;4154886;28;20042;-67
2022/04/12 03:19:49;;;;;;;0.00;0.00;;;10.20;78.90;;;;;;4168600;28;20050;-69
2022/04/12 03:22:11;;;;;;;0.00;0.00;;;10.10;78.70;;;;;;4168472;28;20053;-70
2022/04/12 03:24:33;;;;;;;0.00;0.00;;;10.10;78.50;;;;;;4155028;28;20057;-69
2022/04/12 03:26:55;;;;;;;0.00;0.00;;;10.10;78.20;;;;;;4168052;28;20104;-70
2022/04/12 03:29:20;;;;;;;0.00;0.00;;;10.10;78.00;;;;;;4168431;28;20107;-66
2022/04/12 03:31:44;;;;;;;0.00;0.00;;;10.00;77.60;;;;;;4155262;28;20048;-66
2022/04/12 03:34:06;;;;;;;0.00;0.00;;;10.00;78.40;;;;;;4168455;28;20037;-69
2022/04/12 03:36:28;;;;;;;0.00;0.00;;;10.00;78.20;;;;;;4154711;28;20065;-68
2022/04/12 03:38:52;;;;;;;0.00;0.00;;;10.00;78.50;;;;;;4167891;28;20042;-69
2022/04/12 03:41:21;;;;;;;0.00;0.00;;;9.90;79.10;;;;;;4154900;28;20049;-68
2022/04/12 03:43:43;;;;;;;0.00;0.00;;;9.90;79.40;;;;;;4168348;28;20103;-69
2022/04/12 03:46:05;;;;;;;0.00;0.00;;;9.90;79.60;;;;;;4154890;28;20050;-69
2022/04/12 03:48:29;;;;;;;0.00;0.00;;;9.80;79.60;;;;;;4168058;28;20456;-69
2022/04/12 03:50:51;;;;;;;0.00;0.00;;;9.80;79.40;;;;;;4167827;28;20087;-70
2022/04/12 03:53:16;;;;;;;0.00;0.00;;;9.70;79.00;;;;;;4154900;28;20042;-68
2022/04/12 03:55:40;;;;;;;0.00;0.00;;;9.70;78.80;;;;;;4140987;28;20080;-68
2022/04/12 03:58:04;;;;;;;0.00;0.00;;;9.70;78.70;;;;;;4154030;28;20112;-67
2022/04/12 04:00:32;;;;;;;0.00;0.00;;;9.70;78.80;;;;;;4140762;28;20362;-69
2022/04/12 04:02:58;;;;;;;0.00;0.00;;;9.80;79.20;;;;;;4153987;28;20049;-69
2022/04/12 04:05:22;;;;;;;0.00;0.00;;;9.70;79.70;;;;;;4154077;28;20096;-69
2022/04/12 04:07:46;;;;;;;0.00;0.00;;;9.70;79.90;;;;;;4168464;28;20052;-71
2022/04/12 04:10:14;;;;;;;0.00;0.00;;;9.70;79.80;;;;;;4154733;28;20405;-67
2022/04/12 04:12:42;;;;;;;0.00;0.00;;;9.70;79.70;;;;;;4168796;28;20049;-72
2022/04/12 04:15:11;;;;;;;0.00;0.00;;;9.70;79.40;;;;;;4182067;28;21075;-67
2022/04/12 04:17:34;;;;;;;0.00;0.00;;;9.70;79.20;;;;;;4155311;28;20056;-71
2022/04/12 04:19:55;;;;;;;0.00;0.00;;;9.70;78.90;;;;;;4167589;28;20103;-70
2022/04/12 04:22:17;;;;;;;0.00;0.00;;;9.70;78.60;;;;;;4167782;28;20080;-70
2022/04/12 04:24:42;;;;;;;0.00;0.00;;;9.70;78.40;;;;;;4140279;28;20112;-66
2022/04/12 04:27:05;;;;;;;0.00;0.00;;;9.70;78.40;;;;;;4140317;28;20115;-68
2022/04/12 04:29:32;;;;;;;0.00;0.00;;;9.60;78.50;;;;;;4167625;28;20123;-66
2022/04/12 04:31:57;;;;;;;0.00;0.00;;;9.70;78.50;;;;;;4167345;28;20111;-69
2022/04/12 04:34:19;;;;;;;0.00;0.00;;;9.70;78.70;;;;;;4153928;28;20057;-67
2022/04/12 04:36:41;;;;;;;0.00;0.00;;;9.70;78.70;;;;;;4153687;28;20427;-71
2022/04/12 04:39:05;;;;;;;0.00;0.00;;;9.60;78.90;;;;;;4167514;28;20037;-66
2022/04/12 04:41:27;;;;;;;0.00;0.00;;;9.40;80.20;;;;;;4153968;28;20392;-68
2022/04/12 04:43:49;;;;;;;0.00;0.00;;;9.20;81.90;;;;;;4167536;28;20345;-67
2022/04/12 04:46:13;;;;;;;0.00;0.00;;;9.10;82.60;;;;;;4153704;28;20053;-69
2022/04/12 04:48:35;;;;;;;0.00;0.00;;;8.90;83.70;;;;;;4153684;28;20049;-70
2022/04/12 04:50:59;;;;;;;0.00;0.00;;;8.80;84.00;;;;;;4153312;28;20057;-71
2022/04/12 04:53:21;;;;;;;0.00;0.00;;;9.00;83.50;;;;;;4154097;28;20042;-72
2022/04/12 04:55:50;;;;;;;0.00;0.00;;;9.20;82.60;;;;;;4167481;28;20430;-68
2022/04/12 04:58:15;;;;;;;0.00;0.00;;;9.40;82.00;;;;;;4167173;28;20092;-72
2022/04/12 05:00:40;;;;;;;0.00;0.00;;;9.40;81.70;;;;;;4139881;28;20435;-71
2022/04/12 05:03:03;;;;;;;0.00;0.00;;;9.50;81.50;;;;;;4152940;28;20053;-71
2022/04/12 05:05:31;;;;;;;0.00;0.00;;;9.50;81.50;;;;;;4153358;28;20045;-73
2022/04/12 05:07:58;;;;;;;0.00;0.00;;;9.60;81.70;;;;;;4167284;28;20509;-69
2022/04/12 05:10:22;;;;;;;0.00;0.00;;;9.60;81.70;;;;;;4153839;28;20054;-70
2022/04/12 05:12:45;;;;;;;0.00;0.00;;;9.60;81.70;;;;;;4166787;28;20060;-69
2022/04/12 05:15:09;;;;;;;0.00;0.00;;;9.60;81.70;;;;;;4153525;28;20475;-73
2022/04/12 05:17:31;;;;;;;0.00;0.00;;;9.60;81.90;;;;;;4153767;28;20045;-70
2022/04/12 05:19:59;;;;;;;0.00;0.00;;;9.60;82.10;;;;;;4154399;28;20410;-74
2022/04/12 05:22:25;;;;;;;0.00;0.00;;;9.70;82.10;;;;;;4160068;28;20037;-71
2022/04/12 05:24:47;;;;;;;0.00;0.00;;;9.80;82.00;;;;;;4166256;28;20053;-71
2022/04/12 05:27:10;;;;;;;0.00;0.00;;;9.80;81.80;;;;;;4166535;28;20064;-72
2022/04/12 05:29:34;;;;;;;0.00;0.00;;;9.70;81.80;;;;;;4160881;28;20476;-71
2022/04/12 05:31:56;;;;;;;0.00;0.00;;;9.70;82.10;;;;;;4179806;28;20045;-72
2022/04/12 05:34:20;;;;;;;0.00;0.00;;;9.80;82.00;;;;;;4148769;28;20037;-71
2022/04/12 05:36:44;;;;;;;0.00;0.00;;;9.90;81.50;;;;;;4152680;28;20053;-72
2022/04/12 05:39:09;;;;;;;0.00;0.00;;;10.00;81.50;;;;;;4166544;28;20184;-71
2022/04/12 05:41:33;;;;;;;0.00;0.00;;;10.00;81.40;;;;;;4150254;28;20049;-71
2022/04/12 05:43:57;;;;;;;0.00;0.00;;;10.10;81.60;;;;;;4150381;28;20495;-70
2022/04/12 05:46:22;;;;;;;0.00;0.00;;;10.30;81.40;;;;;;4150163;28;20054;-70
2022/04/12 05:48:44;;;;;;;0.00;0.00;;;10.30;81.20;;;;;;4136130;28;20062;-69
2022/04/12 05:51:08;;;;;;;0.00;0.00;;;10.40;81.60;;;;;;4150249;28;20049;-72
2022/04/12 05:53:35;;;;;;;0.00;0.00;;;10.40;81.60;;;;;;4138966;28;20443;-72
2022/04/12 05:55:57;;;;;;;0.00;0.00;;;10.50;81.70;;;;;;4139331;28;20054;-70
2022/04/12 05:58:26;;;;;;;0.00;0.00;;;10.70;81.40;;;;;;4152506;28;20050;-69
2022/04/12 06:00:48;;;;;;;0.00;0.00;;;10.90;80.70;;;;;;4166131;28;20049;-74
2022/04/12 06:03:12;;;;;;;0.00;0.00;;;11.00;79.90;;;;;;4166307;28;20092;-72
2022/04/12 06:05:37;;;;;;;0.00;0.00;;;10.90;78.90;;;;;;4166490;28;20427;-70
2022/04/12 06:08:03;;;;;;;0.00;0.00;;;11.10;78.40;;;;;;4152598;28;20042;-73
2022/04/12 06:10:26;;;;;;;0.00;0.00;;;11.30;77.40;;;;;;4166618;28;20041;-72
2022/04/12 06:12:54;;;;;;;0.00;0.00;;;11.40;76.00;;;;;;4165778;28;20038;-71
2022/04/12 06:15:19;;;;;;;0.00;0.00;;;11.60;75.80;;;;;;4153450;28;20046;-71
2022/04/12 06:17:42;;;;;;;0.00;0.00;;;11.70;74.30;;;;;;4169586;28;20049;-71
2022/04/12 06:20:09;;;;;;;0.00;0.00;;;11.90;74.40;;;;;;4169653;28;20132;-71
2022/04/12 06:22:32;;;;;;;0.00;0.00;;;12.20;74.00;;;;;;4169724;28;20045;-70
2022/04/12 06:24:54;;;;;;;0.00;0.00;;;12.40;74.20;;;;;;4155293;28;20460;-71
2022/04/12 06:27:30;;;;;;;0.00;0.00;;;12.50;74.40;;;;;;4169385;28;20057;-70
2022/04/12 06:29:57;;;;;;;0.00;0.00;;;12.50;75.40;;;;;;4155794;28;20506;-71
2022/04/12 06:32:21;;;;;;;0.00;0.00;;;12.60;75.60;;;;;;4169124;28;20057;-70
2022/04/12 06:34:43;;;;;;;0.00;0.00;;;12.60;76.20;;;;;;4169186;28;20057;-70
2022/04/12 06:37:05;;;;;;;0.00;0.00;;;12.60;76.60;;;;;;4169313;28;20057;-69
2022/04/12 06:39:27;;;;;;;0.00;0.00;;;12.60;76.80;;;;;;4155073;28;20103;-69
2022/04/12 06:41:49;;;;;;;0.00;0.00;;;12.80;77.00;;;;;;4168009;28;20057;-67
2022/04/12 06:44:16;;;;;;;0.00;0.00;;;12.90;76.20;;;;;;4152817;28;20129;-67
2022/04/12 06:46:40;;;;;;;0.00;0.00;;;12.90;75.80;;;;;;4154235;28;20688;-71
2022/04/12 06:49:02;;;;;;;0.00;0.00;;;12.80;76.10;;;;;;4154999;28;20056;-69
2022/04/12 06:51:24;;;;;;;0.00;0.00;;;12.80;76.00;;;;;;4155428;28;20072;-69
2022/04/12 06:53:50;;;;;;;0.00;0.00;;;12.50;76.70;;;;;;4168950;28;20053;-70
2022/04/12 06:56:20;;;;;;;0.00;0.00;;;12.80;77.10;;;;;;4168694;28;20045;-69
2022/04/12 06:58:44;;;;;;;0.00;0.00;;;13.00;76.70;;;;;;4153298;28;20489;-69
2022/04/12 07:01:09;;;;;;;0.00;0.00;;;13.00;76.70;;;;;;4141390;28;20058;-69
2022/04/12 07:03:34;;;;;;;0.00;0.00;;;13.00;76.40;;;;;;4168634;28;20038;-70
2022/04/12 07:05:56;;;;;;;0.00;0.00;;;13.00;76.80;;;;;;4155067;28;20049;-71
2022/04/12 07:08:20;;;;;;;0.00;0.00;;;13.10;76.10;;;;;;4168598;28;20100;-71
2022/04/12 07:10:45;;;;;;;0.00;0.00;;;13.00;76.00;;;;;;4154662;28;20408;-72
2022/04/12 07:13:07;;;;;;;0.00;0.00;;;13.00;76.10;;;;;;4168546;28;20053;-66
2022/04/12 07:15:29;;;;;;;0.00;0.00;;;12.90;76.20;;;;;;4168657;28;20447;-69
2022/04/12 07:17:51;;;;;;;0.00;0.00;;;13.10;76.10;;;;;;4168616;28;20049;-73
2022/04/12 07:20:13;;;;;;;0.00;0.00;;;13.30;75.20;;;;;;4154864;28;20080;-70
2022/04/12 07:22:35;;;;;;;0.00;0.00;;;13.10;74.70;;;;;;4154919;28;20059;-71
2022/04/12 07:25:00;;;;;;;0.00;0.00;;;13.10;74.60;;;;;;4154337;28;20064;-71
2022/04/12 07:27:24;;;;;;;0.00;0.00;;;13.10;74.70;;;;;;4167981;28;20120;-70
2022/04/12 07:29:48;;;;;;;0.00;0.00;;;13.40;74.60;;;;;;4155208;28;20073;-70
2022/04/12 07:32:10;;;;;;;0.00;0.00;;;13.50;73.60;;;;;;4138357;28;20496;-71
2022/04/12 07:34:35;;;;;;;0.00;0.00;;;13.30;73.50;;;;;;4152232;28;20468;-71
2022/04/12 07:36:59;;;;;;;0.00;0.00;;;13.30;73.80;;;;;;4138471;28;20068;-71
2022/04/12 07:39:24;;;;;;;0.00;0.00;;;13.30;73.50;;;;;;4165717;28;20468;-73
2022/04/12 07:41:47;;;;;;;0.00;0.00;;;13.60;73.00;;;;;;4151838;28;20046;-74
2022/04/12 07:44:09;;;;;;;0.00;0.00;;;13.90;71.90;;;;;;4165296;28;20057;-72
2022/04/12 07:46:36;;;;;;;0.00;0.00;;;14.20;70.00;;;;;;4151682;28;20050;-73
2022/04/12 07:48:58;;;;;;;0.00;0.00;;;14.20;69.10;;;;;;4165080;28;20376;-68
2022/04/12 07:51:20;;;;;;;0.00;0.00;;;14.20;68.00;;;;;;4151670;28;20057;-72
2022/04/12 07:53:42;;;;;;;0.00;0.00;;;14.10;67.70;;;;;;4137893;28;20038;-71
2022/04/12 07:56:14;;;;;;;0.00;0.00;;;14.30;67.30;;;;;;4165173;28;20052;-73
2022/04/12 07:58:41;;;;;;;0.00;0.00;;;14.30;67.20;;;;;;4166894;28;20482;-70
2022/04/12 08:01:06;;;;;;;0.00;0.00;;;14.50;67.10;;;;;;4153609;28;20037;-68
2022/04/12 08:03:31;;;;;;;0.00;0.00;;;14.70;67.90;;;;;;4167985;28;20128;-71
2022/04/12 08:05:55;;;;;;;0.00;0.00;;;15.00;67.50;;;;;;4167742;28;20111;-72
2022/04/12 08:08:21;;;;;;;0.00;0.00;;;15.20;66.80;;;;;;4154137;28;20054;-72
2022/04/12 08:10:46;;;;;;;0.00;0.00;;;15.40;65.00;;;;;;4153591;28;20048;-72
2022/04/12 08:13:13;;;;;;;0.00;0.00;;;15.40;63.50;;;;;;4167201;28;20045;-68
2022/04/12 08:15:39;;;;;;;0.00;0.00;;;15.20;63.20;;;;;;4153783;28;20475;-68
2022/04/12 08:18:04;;;;;;;0.00;0.00;;;15.20;62.60;;;;;;4167156;28;20045;-73
2022/04/12 08:20:26;;;;;;;0.00;0.00;;;15.20;61.60;;;;;;4167412;28;20037;-69
2022/04/12 08:22:49;;;;;;;0.00;0.00;;;15.20;61.70;;;;;;4166893;28;20053;-70
2022/04/12 08:25:14;;;;;;;0.00;0.00;;;15.30;61.60;;;;;;4140234;28;20350;-70
2022/04/12 08:27:41;;;;;;;0.00;0.00;;;15.40;61.40;;;;;;4153876;28;20059;-71
2022/04/12 08:30:06;;;;;;;0.00;0.00;;;15.30;60.80;;;;;;4153481;28;20045;-71
2022/04/12 08:32:31;;;;;;;0.00;0.00;;;15.40;61.70;;;;;;4167147;28;20103;-71
2022/04/12 08:34:53;;;;;;;0.00;0.00;;;15.50;62.70;;;;;;4183436;28;20049;-69
2022/04/12 08:37:15;;;;;;;0.00;0.00;;;15.70;61.90;;;;;;4170040;28;20045;-69
2022/04/12 08:39:42;;;;;;;0.00;0.00;;;16.00;61.50;;;;;;4170327;28;20053;-72
2022/04/12 08:42:05;;;;;;;0.00;0.00;;;16.50;59.80;;;;;;4156335;28;20041;-72
2022/04/12 08:44:36;;;;;;;0.00;0.00;;;16.70;59.20;;;;;;4156411;28;20042;-73
2022/04/12 08:47:05;;;;;;;0.00;0.00;;;16.80;59.00;;;;;;4183464;28;20081;-71
2022/04/12 08:49:32;;;;;;;0.00;0.00;;;16.80;59.10;;;;;;4169936;28;20045;-69
2022/04/12 08:51:54;;;;;;;0.00;0.00;;;17.10;58.70;;;;;;4183687;28;20037;-69
2022/04/12 08:54:17;;;;;;;0.00;0.00;;;17.40;58.00;;;;;;4183676;28;20051;-70
2022/04/12 08:56:43;;;;;;;0.00;0.00;;;17.60;56.80;;;;;;4156097;28;20380;-70
2022/04/12 08:59:08;;;;;;;0.00;0.00;;;17.70;56.50;;;;;;4123663;28;20125;-71
2022/04/12 09:01:34;;;;;;;0.00;0.00;;;17.80;56.40;;;;;;4151240;28;20073;-74
2022/04/12 09:03:58;;;;;;;0.00;0.00;;;17.70;56.00;;;;;;4150797;28;20149;-70
2022/04/12 09:06:21;;;;;;;0.00;0.00;;;17.60;55.40;;;;;;4150041;28;20069;-71
2022/04/12 09:08:45;;;;;;;0.00;0.00;;;17.50;56.00;;;;;;4166706;28;20068;-71
2022/04/12 09:11:10;;;;;;;0.00;0.00;;;17.60;56.40;;;;;;4166806;28;20053;-71
2022/04/12 09:13:33;;;;;;;0.00;0.00;;;17.70;55.60;;;;;;4166997;28;20139;-71
2022/04/12 09:15:58;;;;;;;0.00;0.00;;;17.80;54.70;;;;;;4166932;28;20045;-69
2022/04/12 09:18:48;;;;;;;0.00;0.00;;;17.70;54.20;;;;;;4166404;28;20046;-70
2022/04/12 09:21:16;;;;;;;0.00;0.00;;;17.80;53.60;;;;;;4166587;28;20049;-72
2022/04/12 09:23:42;;;;;;;0.00;0.00;;;17.90;53.20;;;;;;4166697;28;20444;-72
2022/04/12 09:26:20;;;;;;;0.00;0.00;;;17.70;53.20;;;;;;4154333;28;20096;-72
2022/04/12 09:28:43;;;;;;;0.00;0.00;;;17.60;53.60;;;;;;4166350;28;20057;-71
2022/04/12 09:31:17;;;;;;;0.00;0.00;;;17.70;53.50;;;;;;4154460;28;20367;-72
2022/04/12 09:33:42;;;;;;;0.00;0.00;;;17.60;53.60;;;;;;4153136;28;20444;-71
2022/04/12 09:36:05;;;;;;;0.00;0.00;;;17.50;53.60;;;;;;4166659;28;20053;-71
2022/04/12 09:38:38;;;;;;;0.00;0.00;;;17.50;53.10;;;;;;4166661;28;20061;-73
2022/04/12 09:41:19;;;;;;;0.00;0.00;;;17.70;52.90;;;;;;4166174;28;20099;-70
2022/04/12 09:43:56;;;;;;;0.00;0.00;;;17.90;52.30;;;;;;4166953;28;20376;-71
2022/04/12 09:46:23;;;;;;;0.00;0.00;;;18.00;51.10;;;;;;4152914;28;20057;-72
2022/04/12 09:48:50;;;;;;;0.00;0.00;;;17.90;50.90;;;;;;4165932;28;20053;-70
2022/04/12 09:51:15;;;;;;;0.00;0.00;;;17.80;51.50;;;;;;4166477;28;20052;-71
2022/04/12 09:53:39;;;;;;;0.00;0.00;;;17.90;51.30;;;;;;4152771;28;20053;-73
2022/04/12 09:56:21;;;;;;;0.00;0.00;;;18.00;50.60;;;;;;4166448;28;20041;-72
2022/04/12 09:58:47;;;;;;;0.00;0.00;;;18.10;50.90;;;;;;4151893;28;20137;-70
2022/04/12 10:01:12;;;;;;;0.00;0.00;;;18.30;51.40;;;;;;4152806;28;20464;-72
2022/04/12 10:03:37;;;;;;;0.00;0.00;;;18.30;51.40;;;;;;4166258;28;20450;-71
2022/04/12 10:06:03;;;;;;;0.00;0.00;;;18.30;51.20;;;;;;4166273;28;20121;-72
2022/04/12 10:08:29;;;;;;;0.00;0.00;;;18.50;51.20;;;;;;4152759;28;20053;-73
2022/04/12 10:10:52;;;;;;;0.00;0.00;;;18.60;51.20;;;;;;4165906;28;20064;-70
2022/04/12 10:13:21;;;;;;;0.00;0.00;;;18.90;50.90;;;;;;4152434;28;20080;-72
2022/04/12 10:15:49;;;;;;;0.00;0.00;;;19.00;51.50;;;;;;4166056;28;20488;-71
2022/04/12 10:18:20;;;;;;;0.00;0.00;;;18.90;51.20;;;;;;4166310;28;20049;-71
2022/04/12 10:20:46;;;;;;;0.00;0.00;;;18.90;50.50;;;;;;4165798;28;20087;-70
2022/04/12 10:23:09;;;;;;;0.00;0.00;;;19.10;50.40;;;;;;4165991;28;20049;-71
2022/04/12 10:25:35;;;;;;;0.00;0.00;;;19.20;50.60;;;;;;4152296;28;20189;-70
2022/04/12 10:28:03;;;;;;;0.00;0.00;;;19.20;50.80;;;;;;4125714;28;20046;-71
2022/04/12 10:30:31;;;;;;;0.00;0.00;;;19.40;51.00;;;;;;4152637;28;20049;-70
2022/04/12 10:33:19;;;;;;;0.28;0.28;;;19.50;50.90;;;;;;4165653;28;20567;-71
2022/04/12 10:35:44;;;;;;;0.63;0.52;;;19.60;51.40;;;;;;4165858;28;20049;-71
2022/04/12 10:38:09;;;;;;;0.00;0.00;;;19.50;49.90;;;;;;4165925;28;20466;-70
2022/04/12 10:40:48;;;;;;;0.00;0.00;;;19.30;50.20;;;;;;4165483;28;20155;-70
2022/04/12 10:43:14;;;;;;;0.00;0.00;;;19.30;50.90;;;;;;4138818;28;20104;-69
2022/04/12 10:45:46;;;;;;;0.00;0.00;;;19.30;50.10;;;;;;4166032;28;20108;-69
2022/04/12 10:48:24;;;;;;;0.00;0.00;;;19.30;49.20;;;;;;4152686;28;20460;-72
2022/04/12 10:50:48;;;;;;;0.00;0.00;;;19.40;48.60;;;;;;4151797;28;20078;-72
2022/04/12 10:53:11;;;;;;;0.00;0.00;;;19.30;47.90;;;;;;4152348;28;20053;-73
2022/04/12 10:55:42;;;;;;;0.00;0.00;;;19.40;48.50;;;;;;4152251;28;20128;-70
2022/04/12 10:58:30;;;;;;;0.00;0.00;;;19.50;48.30;;;;;;4165662;28;20575;-71
2022/04/12 11:00:55;;;;;;;0.00;0.00;;;19.20;49.20;;;;;;4165759;28;20204;-74
2022/04/12 11:03:44;;;;;;;0.00;0.00;;;19.10;49.70;;;;;;4168655;28;20060;-70
2022/04/12 11:06:21;;;;;;;0.00;0.00;;;18.70;49.10;;;;;;4154712;28;20470;-71
2022/04/12 11:08:50;;;;;;;0.00;0.00;;;18.10;50.40;;;;;;4168408;28;20553;-71
2022/04/12 11:11:39;;;;;;;0.00;0.00;;;18.20;51.70;;;;;;4155509;28;20056;-69
2022/04/12 11:14:21;;;;;;;0.00;0.00;;;18.50;52.60;;;;;;4168631;28;20041;-69
2022/04/12 11:16:53;;;;;;;0.00;0.00;;;18.60;53.50;;;;;;4154431;28;20056;-72
2022/04/12 11:19:24;;;;;;;0.00;0.00;;;18.50;52.70;;;;;;4155348;28;20554;-70
2022/04/12 11:21:55;;;;;;;0.00;0.00;;;18.60;52.40;;;;;;4182057;28;20052;-72
2022/04/12 11:24:22;;;;;;;0.00;0.00;;;19.00;51.20;;;;;;4154928;28;20084;-70
2022/04/12 11:26:51;;;;;;;0.00;0.00;;;19.10;50.80;;;;;;4167984;28;20061;-70
2022/04/12 11:29:20;;;;;;;0.00;0.00;;;19.40;50.60;;;;;;4168310;28;20188;-68
2022/04/12 11:31:50;;;;;;;0.00;0.00;;;19.80;50.10;;;;;;4154717;28;20445;-71
2022/04/12 11:34:15;;;;;;;0.00;0.00;;;20.10;49.50;;;;;;4154706;28;20120;-70
2022/04/12 11:36:43;;;;;;;0.00;0.00;;;20.30;49.60;;;;;;4154713;28;20056;-69
2022/04/12 11:39:07;;;;;;;0.00;0.00;;;20.60;49.40;;;;;;4154433;28;20038;-70
2022/04/12 11:41:29;;;;;;;0.00;0.00;;;20.80;49.00;;;;;;4154443;28;20345;-71
2022/04/12 11:44:05;;;;;;;0.00;0.00;;;20.70;47.90;;;;;;4168265;28;20045;-73
2022/04/12 11:46:32;;;;;;;0.00;0.00;;;20.50;47.80;;;;;;4154622;28;20049;-70
2022/04/12 11:49:06;;;;;;;0.00;0.00;;;20.40;47.60;;;;;;4167725;28;20049;-71
2022/04/12 11:51:43;;;;;;;0.00;0.00;;;20.20;47.30;;;;;;4168028;28;20424;-72
2022/04/12 11:54:19;;;;;;;0.00;0.00;;;20.30;47.40;;;;;;4168010;28;20488;-71
2022/04/12 11:57:01;;;;;;;0.00;0.00;;;20.80;47.30;;;;;;4181434;28;20522;-71
2022/04/12 11:59:29;;;;;;;0.00;0.00;;;21.00;47.10;;;;;;4160625;28;20081;-71
2022/04/12 12:01:53;;;;;;;0.00;0.00;;;21.20;46.70;;;;;;4153916;28;20056;-72
2022/04/12 12:04:16;;;;;;;0.00;0.00;;;21.30;46.50;;;;;;4167863;28;20053;-71
2022/04/12 12:06:56;;;;;;;0.00;0.00;;;21.30;45.80;;;;;;4151214;28;20133;-69
2022/04/12 12:09:20;;;;;;;0.00;0.00;;;21.40;45.30;;;;;;4165096;28;20045;-70
2022/04/12 12:11:46;;;;;;;0.00;0.00;;;21.40;45.60;;;;;;4151405;28;20056;-70
2022/04/12 12:14:11;;;;;;;0.00;0.00;;;21.50;45.10;;;;;;4164285;28;20068;-71
2022/04/12 12:16:39;;;;;;;0.00;0.00;;;21.50;45.00;;;;;;4151349;28;20089;-68
2022/04/12 12:19:06;;;;;;;0.00;0.00;;;21.40;45.30;;;;;;4136866;28;20050;-69
2022/04/12 12:21:34;;;;;;;0.00;0.00;;;21.50;44.40;;;;;;4151225;28;20064;-69
2022/04/12 12:23:56;;;;;;;0.00;0.00;;;21.60;44.40;;;;;;4165190;28;20111;-69
2022/04/12 12:26:28;;;;;;;0.00;0.00;;;21.80;45.20;;;;;;4151315;28;20046;-69
2022/04/12 12:28:59;;;;;;;0.00;0.00;;;21.90;45.60;;;;;;4151136;28;20133;-71
2022/04/12 12:31:27;;;;;;;0.00;0.00;;;22.00;45.20;;;;;;4137581;28;20046;-70
2022/04/12 12:33:49;;;;;;;0.00;0.00;;;22.00;45.20;;;;;;4151019;28;20277;-70
2022/04/12 12:36:19;;;;;;;0.00;0.00;;;22.00;44.80;;;;;;4151007;28;20041;-71
2022/04/12 12:38:44;;;;;;;0.00;0.00;;;22.10;44.30;;;;;;4150464;28;20128;-69
2022/04/12 12:41:06;;;;;;;0.00;0.00;;;22.00;43.80;;;;;;4150881;28;20053;-69
2022/04/12 12:43:34;;;;;;;0.00;0.00;;;22.00;43.90;;;;;;4164622;28;20613;-73